sensor_id;sensor_type;location;lat;lon;timestamp;P1;durP1;ratioP1;P2;durP2;ratioP2
60588;SDS011;46421;48.610;9.334;2023-08-24T00:00:39;9.67;;;4.13;;
60588;SDS011;46421;48.610;9.334;2023-08-24T00:03:04;6.90;;;3.88;;
60588;SDS011;46421;48.610;9.334;2023-08-24T00:05:32;6.07;;;3.80;;
60588;SDS011;46421;48.610;9.334;2023-08-24T00:07:57;7.07;;;3.72;;
60588;SDS011;46421;48.610;9.334;2023-08-24T00:10:23;6.03;;;4.13;;
60588;SDS011;46421;48.610;9.334;2023-08-24T00:12:48;6.00;;;3.77;;
60588;SDS011;46421;48.610;9.334;2023-08-24T00:15:13;8.33;;;4.20;;
60588;SDS011;46421;48.610;9.334;2023-08-24T00:17:38;9.43;;;3.93;;
60588;SDS011;46421;48.610;9.334;2023-08-24T00:20:04;6.43;;;3.55;;
60588;SDS011;46421;48.610;9.334;2023-08-24T00:22:31;6.30;;;4.20;;
60588;SDS011;46421;48.610;9.334;2023-08-24T00:24:57;6.03;;;3.37;;
60588;SDS011;46421;48.610;9.334;2023-08-24T00:27:22;6.97;;;4.13;;
60588;SDS011;46421;48.610;9.334;2023-08-24T00:29:47;6.57;;;4.00;;
60588;SDS011;46421;48.610;9.334;2023-08-24T00:32:12;7.30;;;4.17;;
60588;SDS011;46421;48.610;9.334;2023-08-24T00:34:37;10.00;;;4.60;;
60588;SDS011;46421;48.610;9.334;2023-08-24T00:37:03;6.60;;;4.03;;
60588;SDS011;46421;48.610;9.334;2023-08-24T00:39:28;7.43;;;4.23;;
60588;SDS011;46421;48.610;9.334;2023-08-24T00:41:53;10.68;;;4.05;;
60588;SDS011;46421;48.610;9.334;2023-08-24T00:44:19;6.05;;;3.90;;
60588;SDS011;46421;48.610;9.334;2023-08-24T00:46:44;8.63;;;3.97;;
60588;SDS011;46421;48.610;9.334;2023-08-24T00:49:10;7.73;;;4.17;;
60588;SDS011;46421;48.610;9.334;2023-08-24T00:51:35;7.87;;;4.50;;
60588;SDS011;46421;48.610;9.334;2023-08-24T00:54:00;6.77;;;3.63;;
60588;SDS011;46421;48.610;9.334;2023-08-24T00:56:25;9.40;;;4.13;;
60588;SDS011;46421;48.610;9.334;2023-08-24T00:58:51;8.10;;;3.70;;
60588;SDS011;46421;48.610;9.334;2023-08-24T01:01:20;7.00;;;3.65;;
60588;SDS011;46421;48.610;9.334;2023-08-24T01:03:45;6.63;;;4.05;;
60588;SDS011;46421;48.610;9.334;2023-08-24T01:06:10;6.53;;;3.97;;
60588;SDS011;46421;48.610;9.334;2023-08-24T01:08:36;7.10;;;4.45;;
60588;SDS011;46421;48.610;9.334;2023-08-24T01:13:50;8.18;;;4.10;;
60588;SDS011;46421;48.610;9.334;2023-08-24T01:16:18;8.25;;;4.25;;
60588;SDS011;46421;48.610;9.334;2023-08-24T01:18:44;6.80;;;4.10;;
60588;SDS011;46421;48.610;9.334;2023-08-24T01:21:10;6.93;;;3.90;;
60588;SDS011;46421;48.610;9.334;2023-08-24T01:23:43;7.57;;;4.15;;
60588;SDS011;46421;48.610;9.334;2023-08-24T01:26:11;7.40;;;4.10;;
60588;SDS011;46421;48.610;9.334;2023-08-24T01:31:01;6.65;;;4.28;;
60588;SDS011;46421;48.610;9.334;2023-08-24T01:33:28;6.80;;;3.80;;
60588;SDS011;46421;48.610;9.334;2023-08-24T01:35:53;6.73;;;3.70;;
60588;SDS011;46421;48.610;9.334;2023-08-24T01:38:18;8.40;;;4.27;;
60588;SDS011;46421;48.610;9.334;2023-08-24T01:43:24;6.65;;;4.00;;
60588;SDS011;46421;48.610;9.334;2023-08-24T01:45:50;7.97;;;4.30;;
60588;SDS011;46421;48.610;9.334;2023-08-24T01:48:16;6.57;;;4.38;;
60588;SDS011;46421;48.610;9.334;2023-08-24T01:50:42;7.82;;;4.22;;
60588;SDS011;46421;48.610;9.334;2023-08-24T01:53:08;6.82;;;4.20;;
60588;SDS011;46421;48.610;9.334;2023-08-24T01:55:33;8.50;;;4.13;;
60588;SDS011;46421;48.610;9.334;2023-08-24T01:57:59;7.72;;;3.85;;
60588;SDS011;46421;48.610;9.334;2023-08-24T02:00:25;7.20;;;4.22;;
60588;SDS011;46421;48.610;9.334;2023-08-24T02:02:50;6.00;;;3.50;;
60588;SDS011;46421;48.610;9.334;2023-08-24T02:05:15;8.53;;;3.77;;
60588;SDS011;46421;48.610;9.334;2023-08-24T02:07:40;9.73;;;3.87;;
60588;SDS011;46421;48.610;9.334;2023-08-24T02:10:06;8.97;;;4.30;;
60588;SDS011;46421;48.610;9.334;2023-08-24T02:12:31;7.57;;;4.70;;
60588;SDS011;46421;48.610;9.334;2023-08-24T02:14:56;7.07;;;4.17;;
60588;SDS011;46421;48.610;9.334;2023-08-24T02:17:21;8.07;;;4.13;;
60588;SDS011;46421;48.610;9.334;2023-08-24T02:19:46;6.77;;;4.53;;
60588;SDS011;46421;48.610;9.334;2023-08-24T02:22:12;9.20;;;4.07;;
60588;SDS011;46421;48.610;9.334;2023-08-24T02:24:37;10.53;;;4.50;;
60588;SDS011;46421;48.610;9.334;2023-08-24T02:27:02;7.23;;;4.60;;
60588;SDS011;46421;48.610;9.334;2023-08-24T02:29:27;6.63;;;4.20;;
60588;SDS011;46421;48.610;9.334;2023-08-24T02:31:55;7.22;;;4.28;;
60588;SDS011;46421;48.610;9.334;2023-08-24T02:34:20;7.53;;;4.97;;
60588;SDS011;46421;48.610;9.334;2023-08-24T02:36:46;8.87;;;4.60;;
60588;SDS011;46421;48.610;9.334;2023-08-24T02:39:11;9.17;;;4.30;;
60588;SDS011;46421;48.610;9.334;2023-08-24T02:41:36;8.68;;;4.00;;
60588;SDS011;46421;48.610;9.334;2023-08-24T02:44:02;8.63;;;4.57;;
60588;SDS011;46421;48.610;9.334;2023-08-24T02:46:27;7.70;;;4.35;;
60588;SDS011;46421;48.610;9.334;2023-08-24T02:48:52;7.22;;;4.68;;
60588;SDS011;46421;48.610;9.334;2023-08-24T02:51:19;6.80;;;4.43;;
60588;SDS011;46421;48.610;9.334;2023-08-24T02:56:09;6.95;;;4.38;;
60588;SDS011;46421;48.610;9.334;2023-08-24T02:58:34;9.37;;;4.30;;
60588;SDS011;46421;48.610;9.334;2023-08-24T03:01:03;8.43;;;4.20;;
60588;SDS011;46421;48.610;9.334;2023-08-24T03:03:30;6.97;;;3.90;;
60588;SDS011;46421;48.610;9.334;2023-08-24T03:05:56;7.80;;;4.40;;
60588;SDS011;46421;48.610;9.334;2023-08-24T03:08:22;8.15;;;4.15;;
60588;SDS011;46421;48.610;9.334;2023-08-24T03:10:47;7.25;;;4.18;;
60588;SDS011;46421;48.610;9.334;2023-08-24T03:13:13;6.93;;;4.40;;
60588;SDS011;46421;48.610;9.334;2023-08-24T03:15:38;6.65;;;4.40;;
60588;SDS011;46421;48.610;9.334;2023-08-24T03:18:04;6.83;;;4.43;;
60588;SDS011;46421;48.610;9.334;2023-08-24T03:20:29;7.00;;;4.70;;
60588;SDS011;46421;48.610;9.334;2023-08-24T03:22:54;6.97;;;4.23;;
60588;SDS011;46421;48.610;9.334;2023-08-24T03:25:19;7.13;;;4.57;;
60588;SDS011;46421;48.610;9.334;2023-08-24T03:27:44;7.97;;;4.60;;
60588;SDS011;46421;48.610;9.334;2023-08-24T03:30:10;8.53;;;4.50;;
60588;SDS011;46421;48.610;9.334;2023-08-24T03:32:35;7.88;;;4.38;;
60588;SDS011;46421;48.610;9.334;2023-08-24T03:35:01;7.73;;;4.07;;
60588;SDS011;46421;48.610;9.334;2023-08-24T03:37:27;6.38;;;3.88;;
60588;SDS011;46421;48.610;9.334;2023-08-24T03:39:52;8.10;;;4.10;;
60588;SDS011;46421;48.610;9.334;2023-08-24T03:42:17;7.77;;;4.83;;
60588;SDS011;46421;48.610;9.334;2023-08-24T03:44:43;6.37;;;3.77;;
60588;SDS011;46421;48.610;9.334;2023-08-24T03:47:08;8.87;;;4.83;;
60588;SDS011;46421;48.610;9.334;2023-08-24T03:49:34;6.72;;;4.47;;
60588;SDS011;46421;48.610;9.334;2023-08-24T03:51:59;8.10;;;4.45;;
60588;SDS011;46421;48.610;9.334;2023-08-24T03:54:24;7.33;;;4.40;;
60588;SDS011;46421;48.610;9.334;2023-08-24T03:56:49;8.43;;;4.20;;
60588;SDS011;46421;48.610;9.334;2023-08-24T03:59:14;6.63;;;4.30;;
60588;SDS011;46421;48.610;9.334;2023-08-24T04:01:40;9.57;;;4.20;;
60588;SDS011;46421;48.610;9.334;2023-08-24T04:04:05;6.90;;;4.13;;
60588;SDS011;46421;48.610;9.334;2023-08-24T04:06:30;7.93;;;3.87;;
60588;SDS011;46421;48.610;9.334;2023-08-24T04:08:55;7.83;;;4.30;;
60588;SDS011;46421;48.610;9.334;2023-08-24T04:11:21;7.47;;;4.73;;
60588;SDS011;46421;48.610;9.334;2023-08-24T04:13:46;7.43;;;4.93;;
60588;SDS011;46421;48.610;9.334;2023-08-24T04:16:11;6.78;;;4.43;;
60588;SDS011;46421;48.610;9.334;2023-08-24T04:18:37;7.93;;;4.67;;
60588;SDS011;46421;48.610;9.334;2023-08-24T04:21:02;7.10;;;4.30;;
60588;SDS011;46421;48.610;9.334;2023-08-24T04:23:27;6.23;;;4.10;;
60588;SDS011;46421;48.610;9.334;2023-08-24T04:25:53;7.35;;;4.45;;
60588;SDS011;46421;48.610;9.334;2023-08-24T04:28:18;8.02;;;4.43;;
60588;SDS011;46421;48.610;9.334;2023-08-24T04:30:50;6.82;;;4.20;;
60588;SDS011;46421;48.610;9.334;2023-08-24T04:33:16;7.03;;;4.13;;
60588;SDS011;46421;48.610;9.334;2023-08-24T04:35:41;8.15;;;4.50;;
60588;SDS011;46421;48.610;9.334;2023-08-24T04:38:06;7.20;;;4.33;;
60588;SDS011;46421;48.610;9.334;2023-08-24T04:40:47;6.43;;;4.25;;
60588;SDS011;46421;48.610;9.334;2023-08-24T04:43:13;8.73;;;4.40;;
60588;SDS011;46421;48.610;9.334;2023-08-24T04:45:38;6.70;;;4.13;;
60588;SDS011;46421;48.610;9.334;2023-08-24T04:48:03;7.47;;;4.40;;
60588;SDS011;46421;48.610;9.334;2023-08-24T04:50:29;7.30;;;4.20;;
60588;SDS011;46421;48.610;9.334;2023-08-24T04:52:54;6.73;;;4.17;;
60588;SDS011;46421;48.610;9.334;2023-08-24T04:55:19;7.50;;;4.40;;
60588;SDS011;46421;48.610;9.334;2023-08-24T04:57:44;9.30;;;5.20;;
60588;SDS011;46421;48.610;9.334;2023-08-24T05:00:09;10.30;;;4.67;;
60588;SDS011;46421;48.610;9.334;2023-08-24T05:02:40;8.68;;;4.40;;
60588;SDS011;46421;48.610;9.334;2023-08-24T05:05:06;7.57;;;4.83;;
60588;SDS011;46421;48.610;9.334;2023-08-24T05:07:31;9.10;;;4.78;;
60588;SDS011;46421;48.610;9.334;2023-08-24T05:09:56;8.10;;;4.47;;
60588;SDS011;46421;48.610;9.334;2023-08-24T05:12:22;6.17;;;4.20;;
60588;SDS011;46421;48.610;9.334;2023-08-24T05:14:47;6.80;;;3.90;;
60588;SDS011;46421;48.610;9.334;2023-08-24T05:17:12;6.73;;;4.40;;
60588;SDS011;46421;48.610;9.334;2023-08-24T05:19:37;8.80;;;5.03;;
60588;SDS011;46421;48.610;9.334;2023-08-24T05:22:02;9.20;;;5.17;;
60588;SDS011;46421;48.610;9.334;2023-08-24T05:24:28;7.33;;;4.90;;
60588;SDS011;46421;48.610;9.334;2023-08-24T05:26:53;7.90;;;4.77;;
60588;SDS011;46421;48.610;9.334;2023-08-24T05:29:18;8.27;;;5.70;;
60588;SDS011;46421;48.610;9.334;2023-08-24T05:31:43;7.90;;;5.10;;
60588;SDS011;46421;48.610;9.334;2023-08-24T05:34:08;8.00;;;4.80;;
60588;SDS011;46421;48.610;9.334;2023-08-24T05:36:34;8.27;;;4.80;;
60588;SDS011;46421;48.610;9.334;2023-08-24T05:38:59;7.37;;;4.67;;
60588;SDS011;46421;48.610;9.334;2023-08-24T05:41:24;7.20;;;4.93;;
60588;SDS011;46421;48.610;9.334;2023-08-24T05:43:49;11.13;;;5.27;;
60588;SDS011;46421;48.610;9.334;2023-08-24T05:46:16;9.63;;;4.93;;
60588;SDS011;46421;48.610;9.334;2023-08-24T05:48:41;9.20;;;5.43;;
60588;SDS011;46421;48.610;9.334;2023-08-24T05:51:06;7.60;;;5.10;;
60588;SDS011;46421;48.610;9.334;2023-08-24T05:53:34;6.90;;;4.55;;
60588;SDS011;46421;48.610;9.334;2023-08-24T05:55:59;8.47;;;5.23;;
60588;SDS011;46421;48.610;9.334;2023-08-24T05:58:24;7.63;;;5.27;;
60588;SDS011;46421;48.610;9.334;2023-08-24T06:00:55;7.50;;;4.67;;
60588;SDS011;46421;48.610;9.334;2023-08-24T06:03:20;7.47;;;5.03;;
60588;SDS011;46421;48.610;9.334;2023-08-24T06:05:45;10.07;;;5.30;;
60588;SDS011;46421;48.610;9.334;2023-08-24T06:08:11;8.13;;;5.45;;
60588;SDS011;46421;48.610;9.334;2023-08-24T06:10:36;9.77;;;5.63;;
60588;SDS011;46421;48.610;9.334;2023-08-24T06:13:01;10.93;;;5.13;;
60588;SDS011;46421;48.610;9.334;2023-08-24T06:15:26;8.82;;;5.32;;
60588;SDS011;46421;48.610;9.334;2023-08-24T06:17:53;9.65;;;5.43;;
60588;SDS011;46421;48.610;9.334;2023-08-24T06:20:18;9.20;;;5.70;;
60588;SDS011;46421;48.610;9.334;2023-08-24T06:22:44;8.27;;;4.65;;
60588;SDS011;46421;48.610;9.334;2023-08-24T06:25:09;7.97;;;5.27;;
60588;SDS011;46421;48.610;9.334;2023-08-24T06:27:34;7.17;;;5.03;;
60588;SDS011;46421;48.610;9.334;2023-08-24T06:29:59;8.37;;;6.00;;
60588;SDS011;46421;48.610;9.334;2023-08-24T06:32:25;8.63;;;5.53;;
60588;SDS011;46421;48.610;9.334;2023-08-24T06:34:50;10.10;;;5.37;;
60588;SDS011;46421;48.610;9.334;2023-08-24T06:37:15;9.67;;;5.47;;
60588;SDS011;46421;48.610;9.334;2023-08-24T06:39:40;8.23;;;4.77;;
60588;SDS011;46421;48.610;9.334;2023-08-24T06:42:05;9.30;;;5.77;;
60588;SDS011;46421;48.610;9.334;2023-08-24T06:44:31;7.60;;;4.70;;
60588;SDS011;46421;48.610;9.334;2023-08-24T06:46:56;8.50;;;4.90;;
60588;SDS011;46421;48.610;9.334;2023-08-24T06:49:21;10.20;;;6.03;;
60588;SDS011;46421;48.610;9.334;2023-08-24T06:51:46;9.53;;;4.90;;
60588;SDS011;46421;48.610;9.334;2023-08-24T06:54:11;8.33;;;5.17;;
60588;SDS011;46421;48.610;9.334;2023-08-24T06:56:37;11.17;;;6.00;;
60588;SDS011;46421;48.610;9.334;2023-08-24T06:59:02;11.93;;;5.80;;
60588;SDS011;46421;48.610;9.334;2023-08-24T07:01:27;8.93;;;5.13;;
60588;SDS011;46421;48.610;9.334;2023-08-24T07:03:53;8.17;;;5.13;;
60588;SDS011;46421;48.610;9.334;2023-08-24T07:06:18;9.00;;;5.93;;
60588;SDS011;46421;48.610;9.334;2023-08-24T07:08:43;8.77;;;5.27;;
60588;SDS011;46421;48.610;9.334;2023-08-24T07:11:08;11.50;;;5.47;;
60588;SDS011;46421;48.610;9.334;2023-08-24T07:13:33;11.60;;;5.30;;
60588;SDS011;46421;48.610;9.334;2023-08-24T07:15:59;13.20;;;5.90;;
60588;SDS011;46421;48.610;9.334;2023-08-24T07:18:25;7.07;;;5.13;;
60588;SDS011;46421;48.610;9.334;2023-08-24T07:20:50;10.53;;;5.20;;
60588;SDS011;46421;48.610;9.334;2023-08-24T07:23:15;7.43;;;4.97;;
60588;SDS011;46421;48.610;9.334;2023-08-24T07:25:40;8.73;;;5.40;;
60588;SDS011;46421;48.610;9.334;2023-08-24T07:28:06;7.50;;;5.28;;
60588;SDS011;46421;48.610;9.334;2023-08-24T07:30:32;9.50;;;5.07;;
60588;SDS011;46421;48.610;9.334;2023-08-24T07:32:57;11.80;;;4.93;;
60588;SDS011;46421;48.610;9.334;2023-08-24T07:35:22;7.70;;;5.32;;
60588;SDS011;46421;48.610;9.334;2023-08-24T07:37:52;10.63;;;5.70;;
60588;SDS011;46421;48.610;9.334;2023-08-24T07:40:17;9.35;;;5.03;;
60588;SDS011;46421;48.610;9.334;2023-08-24T07:42:46;7.72;;;5.57;;
60588;SDS011;46421;48.610;9.334;2023-08-24T07:45:12;9.40;;;5.35;;
60588;SDS011;46421;48.610;9.334;2023-08-24T07:47:37;10.00;;;5.00;;
60588;SDS011;46421;48.610;9.334;2023-08-24T07:50:02;8.07;;;4.70;;
60588;SDS011;46421;48.610;9.334;2023-08-24T07:52:28;8.00;;;5.25;;
60588;SDS011;46421;48.610;9.334;2023-08-24T07:54:54;9.07;;;5.40;;
60588;SDS011;46421;48.610;9.334;2023-08-24T07:59:45;9.27;;;5.30;;
60588;SDS011;46421;48.610;9.334;2023-08-24T08:02:10;10.03;;;4.80;;
60588;SDS011;46421;48.610;9.334;2023-08-24T08:04:36;6.83;;;4.67;;
60588;SDS011;46421;48.610;9.334;2023-08-24T08:07:01;5.70;;;4.10;;
60588;SDS011;46421;48.610;9.334;2023-08-24T08:09:27;5.80;;;4.50;;
60588;SDS011;46421;48.610;9.334;2023-08-24T08:11:52;7.17;;;4.47;;
60588;SDS011;46421;48.610;9.334;2023-08-24T08:14:18;9.57;;;4.32;;
60588;SDS011;46421;48.610;9.334;2023-08-24T08:16:45;7.13;;;4.57;;
60588;SDS011;46421;48.610;9.334;2023-08-24T08:19:10;7.97;;;4.37;;
60588;SDS011;46421;48.610;9.334;2023-08-24T08:21:35;7.63;;;4.83;;
60588;SDS011;46421;48.610;9.334;2023-08-24T08:24:00;6.17;;;4.37;;
60588;SDS011;46421;48.610;9.334;2023-08-24T08:28:51;6.30;;;5.20;;
60588;SDS011;46421;48.610;9.334;2023-08-24T08:33:41;7.30;;;4.63;;
60588;SDS011;46421;48.610;9.334;2023-08-24T08:38:31;9.50;;;5.88;;
60588;SDS011;46421;48.610;9.334;2023-08-24T08:43:22;6.13;;;4.20;;
60588;SDS011;46421;48.610;9.334;2023-08-24T08:48:13;7.00;;;4.57;;
60588;SDS011;46421;48.610;9.334;2023-08-24T08:53:03;6.28;;;4.63;;
60588;SDS011;46421;48.610;9.334;2023-08-24T08:57:55;7.97;;;4.63;;
60588;SDS011;46421;48.610;9.334;2023-08-24T09:00:23;7.95;;;5.00;;
60588;SDS011;46421;48.610;9.334;2023-08-24T09:02:49;8.55;;;4.88;;
60588;SDS011;46421;48.610;9.334;2023-08-24T09:05:16;6.93;;;4.85;;
60588;SDS011;46421;48.610;9.334;2023-08-24T09:07:43;6.78;;;4.78;;
60588;SDS011;46421;48.610;9.334;2023-08-24T09:10:08;7.72;;;5.60;;
60588;SDS011;46421;48.610;9.334;2023-08-24T09:12:34;9.20;;;5.38;;
60588;SDS011;46421;48.610;9.334;2023-08-24T09:14:59;5.82;;;4.32;;
60588;SDS011;46421;48.610;9.334;2023-08-24T09:17:24;7.07;;;5.13;;
60588;SDS011;46421;48.610;9.334;2023-08-24T09:19:50;7.13;;;5.27;;
60588;SDS011;46421;48.610;9.334;2023-08-24T09:22:17;5.88;;;4.55;;
60588;SDS011;46421;48.610;9.334;2023-08-24T09:24:42;6.70;;;5.20;;
60588;SDS011;46421;48.610;9.334;2023-08-24T09:27:18;8.32;;;5.43;;
60588;SDS011;46421;48.610;9.334;2023-08-24T09:29:52;10.02;;;5.50;;
60588;SDS011;46421;48.610;9.334;2023-08-24T09:32:21;8.15;;;5.10;;
60588;SDS011;46421;48.610;9.334;2023-08-24T09:34:47;6.15;;;5.53;;
60588;SDS011;46421;48.610;9.334;2023-08-24T09:37:13;7.57;;;5.07;;
60588;SDS011;46421;48.610;9.334;2023-08-24T09:39:39;7.07;;;4.57;;
60588;SDS011;46421;48.610;9.334;2023-08-24T09:42:04;6.70;;;4.90;;
60588;SDS011;46421;48.610;9.334;2023-08-24T09:44:30;6.53;;;5.07;;
60588;SDS011;46421;48.610;9.334;2023-08-24T09:46:55;6.80;;;4.47;;
60588;SDS011;46421;48.610;9.334;2023-08-24T09:49:20;7.93;;;5.20;;
60588;SDS011;46421;48.610;9.334;2023-08-24T09:51:46;7.47;;;5.35;;
60588;SDS011;46421;48.610;9.334;2023-08-24T09:54:12;7.68;;;5.60;;
60588;SDS011;46421;48.610;9.334;2023-08-24T09:56:40;9.25;;;6.00;;
60588;SDS011;46421;48.610;9.334;2023-08-24T09:59:15;6.20;;;5.25;;
60588;SDS011;46421;48.610;9.334;2023-08-24T10:01:44;7.57;;;5.10;;
60588;SDS011;46421;48.610;9.334;2023-08-24T10:04:11;10.38;;;5.70;;
60588;SDS011;46421;48.610;9.334;2023-08-24T10:06:38;7.28;;;6.00;;
60588;SDS011;46421;48.610;9.334;2023-08-24T10:09:05;7.85;;;6.38;;
60588;SDS011;46421;48.610;9.334;2023-08-24T10:11:33;7.38;;;5.60;;
60588;SDS011;46421;48.610;9.334;2023-08-24T10:16:43;8.52;;;5.97;;
60588;SDS011;46421;48.610;9.334;2023-08-24T10:19:09;6.90;;;4.97;;
60588;SDS011;46421;48.610;9.334;2023-08-24T10:21:34;7.33;;;6.63;;
60588;SDS011;46421;48.610;9.334;2023-08-24T10:24:01;7.45;;;5.88;;
60588;SDS011;46421;48.610;9.334;2023-08-24T10:26:26;8.48;;;6.53;;
60588;SDS011;46421;48.610;9.334;2023-08-24T10:28:52;8.55;;;6.68;;
60588;SDS011;46421;48.610;9.334;2023-08-24T10:31:17;8.05;;;6.75;;
60588;SDS011;46421;48.610;9.334;2023-08-24T10:33:44;8.85;;;7.05;;
60588;SDS011;46421;48.610;9.334;2023-08-24T10:36:10;7.35;;;6.30;;
60588;SDS011;46421;48.610;9.334;2023-08-24T10:38:39;8.98;;;5.65;;
60588;SDS011;46421;48.610;9.334;2023-08-24T10:41:06;7.15;;;6.30;;
60588;SDS011;46421;48.610;9.334;2023-08-24T10:43:35;9.98;;;6.82;;
60588;SDS011;46421;48.610;9.334;2023-08-24T10:46:02;8.05;;;7.30;;
60588;SDS011;46421;48.610;9.334;2023-08-24T10:48:56;7.97;;;6.47;;
60588;SDS011;46421;48.610;9.334;2023-08-24T10:53:40;7.75;;;6.47;;
60588;SDS011;46421;48.610;9.334;2023-08-24T10:56:12;8.75;;;6.88;;
60588;SDS011;46421;48.610;9.334;2023-08-24T10:58:37;9.77;;;6.93;;
60588;SDS011;46421;48.610;9.334;2023-08-24T11:01:03;7.27;;;6.27;;
60588;SDS011;46421;48.610;9.334;2023-08-24T11:03:31;7.87;;;6.43;;
60588;SDS011;46421;48.610;9.334;2023-08-24T11:05:58;8.50;;;5.95;;
60588;SDS011;46421;48.610;9.334;2023-08-24T11:08:39;7.53;;;5.60;;
60588;SDS011;46421;48.610;9.334;2023-08-24T11:11:17;10.50;;;5.97;;
60588;SDS011;46421;48.610;9.334;2023-08-24T11:14:03;8.65;;;5.90;;
60588;SDS011;46421;48.610;9.334;2023-08-24T11:16:41;8.65;;;6.63;;
60588;SDS011;46421;48.610;9.334;2023-08-24T11:19:06;8.82;;;6.38;;
60588;SDS011;46421;48.610;9.334;2023-08-24T11:21:33;7.55;;;6.05;;
60588;SDS011;46421;48.610;9.334;2023-08-24T11:23:59;9.77;;;6.60;;
60588;SDS011;46421;48.610;9.334;2023-08-24T11:26:24;7.82;;;6.15;;
60588;SDS011;46421;48.610;9.334;2023-08-24T11:28:52;7.97;;;5.65;;
60588;SDS011;46421;48.610;9.334;2023-08-24T11:31:18;7.95;;;5.90;;
60588;SDS011;46421;48.610;9.334;2023-08-24T11:33:43;6.47;;;5.80;;
60588;SDS011;46421;48.610;9.334;2023-08-24T11:36:09;6.85;;;6.15;;
60588;SDS011;46421;48.610;9.334;2023-08-24T11:38:41;7.27;;;5.83;;
60588;SDS011;46421;48.610;9.334;2023-08-24T11:41:10;7.75;;;6.80;;
60588;SDS011;46421;48.610;9.334;2023-08-24T11:43:35;7.95;;;6.68;;
60588;SDS011;46421;48.610;9.334;2023-08-24T11:46:00;7.17;;;6.33;;
60588;SDS011;46421;48.610;9.334;2023-08-24T11:48:26;7.13;;;6.43;;
60588;SDS011;46421;48.610;9.334;2023-08-24T11:50:52;8.15;;;6.03;;
60588;SDS011;46421;48.610;9.334;2023-08-24T11:53:19;8.55;;;7.20;;
60588;SDS011;46421;48.610;9.334;2023-08-24T11:55:44;8.83;;;7.70;;
60588;SDS011;46421;48.610;9.334;2023-08-24T11:58:13;10.30;;;7.43;;
60588;SDS011;46421;48.610;9.334;2023-08-24T12:00:38;7.88;;;7.10;;
60588;SDS011;46421;48.610;9.334;2023-08-24T12:03:04;8.57;;;7.22;;
60588;SDS011;46421;48.610;9.334;2023-08-24T12:05:29;8.37;;;7.13;;
60588;SDS011;46421;48.610;9.334;2023-08-24T12:07:54;8.33;;;7.10;;
60588;SDS011;46421;48.610;9.334;2023-08-24T12:10:20;7.23;;;6.50;;
60588;SDS011;46421;48.610;9.334;2023-08-24T12:12:46;7.50;;;5.93;;
60588;SDS011;46421;48.610;9.334;2023-08-24T12:15:18;9.98;;;6.65;;
60588;SDS011;46421;48.610;9.334;2023-08-24T12:17:45;8.88;;;6.65;;
60588;SDS011;46421;48.610;9.334;2023-08-24T12:20:20;9.00;;;6.28;;
60588;SDS011;46421;48.610;9.334;2023-08-24T12:22:52;9.48;;;5.38;;
60588;SDS011;46421;48.610;9.334;2023-08-24T12:25:17;9.00;;;6.82;;
60588;SDS011;46421;48.610;9.334;2023-08-24T12:27:43;10.13;;;7.28;;
60588;SDS011;46421;48.610;9.334;2023-08-24T12:30:10;9.57;;;6.50;;
60588;SDS011;46421;48.610;9.334;2023-08-24T12:32:42;11.15;;;7.00;;
60588;SDS011;46421;48.610;9.334;2023-08-24T12:35:08;6.63;;;5.78;;
60588;SDS011;46421;48.610;9.334;2023-08-24T12:37:35;8.02;;;6.28;;
60588;SDS011;46421;48.610;9.334;2023-08-24T12:40:01;7.43;;;6.72;;
60588;SDS011;46421;48.610;9.334;2023-08-24T12:42:26;8.43;;;7.50;;
60588;SDS011;46421;48.610;9.334;2023-08-24T12:44:51;9.10;;;6.33;;
60588;SDS011;46421;48.610;9.334;2023-08-24T12:47:16;9.93;;;5.90;;
60588;SDS011;46421;48.610;9.334;2023-08-24T12:49:41;6.63;;;5.00;;
60588;SDS011;46421;48.610;9.334;2023-08-24T12:52:07;10.27;;;6.03;;
60588;SDS011;46421;48.610;9.334;2023-08-24T12:54:32;10.82;;;7.22;;
60588;SDS011;46421;48.610;9.334;2023-08-24T12:56:57;6.80;;;5.97;;
60588;SDS011;46421;48.610;9.334;2023-08-24T12:59:23;8.90;;;6.30;;
60588;SDS011;46421;48.610;9.334;2023-08-24T13:01:48;9.43;;;6.67;;
60588;SDS011;46421;48.610;9.334;2023-08-24T13:04:13;9.47;;;6.40;;
60588;SDS011;46421;48.610;9.334;2023-08-24T13:06:38;9.47;;;6.57;;
60588;SDS011;46421;48.610;9.334;2023-08-24T13:09:03;8.33;;;6.23;;
60588;SDS011;46421;48.610;9.334;2023-08-24T13:11:29;9.73;;;6.67;;
60588;SDS011;46421;48.610;9.334;2023-08-24T13:13:54;10.83;;;6.27;;
60588;SDS011;46421;48.610;9.334;2023-08-24T13:16:19;9.40;;;6.47;;
60588;SDS011;46421;48.610;9.334;2023-08-24T13:18:44;9.47;;;6.57;;
60588;SDS011;46421;48.610;9.334;2023-08-24T13:21:09;9.80;;;5.53;;
60588;SDS011;46421;48.610;9.334;2023-08-24T13:23:35;7.50;;;5.23;;
60588;SDS011;46421;48.610;9.334;2023-08-24T13:26:00;9.43;;;5.03;;
60588;SDS011;46421;48.610;9.334;2023-08-24T13:28:25;9.70;;;6.50;;
60588;SDS011;46421;48.610;9.334;2023-08-24T13:30:51;8.75;;;6.53;;
60588;SDS011;46421;48.610;9.334;2023-08-24T13:33:16;9.80;;;4.87;;
60588;SDS011;46421;48.610;9.334;2023-08-24T13:35:42;9.30;;;4.25;;
60588;SDS011;46421;48.610;9.334;2023-08-24T13:38:07;8.93;;;4.43;;
60588;SDS011;46421;48.610;9.334;2023-08-24T13:40:33;12.63;;;4.50;;
60588;SDS011;46421;48.610;9.334;2023-08-24T13:42:58;6.77;;;4.07;;
60588;SDS011;46421;48.610;9.334;2023-08-24T13:45:23;6.53;;;5.00;;
60588;SDS011;46421;48.610;9.334;2023-08-24T13:47:49;8.30;;;4.75;;
60588;SDS011;46421;48.610;9.334;2023-08-24T13:50:14;11.47;;;5.27;;
60588;SDS011;46421;48.610;9.334;2023-08-24T13:52:39;8.87;;;5.73;;
60588;SDS011;46421;48.610;9.334;2023-08-24T13:55:04;10.33;;;5.67;;
60588;SDS011;46421;48.610;9.334;2023-08-24T13:57:30;10.68;;;5.32;;
60588;SDS011;46421;48.610;9.334;2023-08-24T13:59:55;8.77;;;6.30;;
60588;SDS011;46421;48.610;9.334;2023-08-24T14:02:20;8.27;;;5.33;;
60588;SDS011;46421;48.610;9.334;2023-08-24T14:04:46;9.40;;;4.87;;
60588;SDS011;46421;48.610;9.334;2023-08-24T14:07:11;9.27;;;5.07;;
60588;SDS011;46421;48.610;9.334;2023-08-24T14:09:36;9.30;;;4.07;;
60588;SDS011;46421;48.610;9.334;2023-08-24T14:12:02;9.07;;;4.37;;
60588;SDS011;46421;48.610;9.334;2023-08-24T14:14:27;9.82;;;4.95;;
60588;SDS011;46421;48.610;9.334;2023-08-24T14:19:17;8.23;;;3.97;;
60588;SDS011;46421;48.610;9.334;2023-08-24T14:24:09;9.90;;;4.55;;
60588;SDS011;46421;48.610;9.334;2023-08-24T14:26:34;10.00;;;4.60;;
60588;SDS011;46421;48.610;9.334;2023-08-24T14:31:25;11.02;;;4.50;;
60588;SDS011;46421;48.610;9.334;2023-08-24T14:33:51;10.98;;;4.20;;
60588;SDS011;46421;48.610;9.334;2023-08-24T14:38:41;10.02;;;3.90;;
60588;SDS011;46421;48.610;9.334;2023-08-24T14:43:32;8.65;;;4.03;;
60588;SDS011;46421;48.610;9.334;2023-08-24T14:48:23;9.83;;;4.30;;
60588;SDS011;46421;48.610;9.334;2023-08-24T14:53:13;10.90;;;4.38;;
60588;SDS011;46421;48.610;9.334;2023-08-24T14:58:04;7.70;;;4.23;;
60588;SDS011;46421;48.610;9.334;2023-08-24T15:00:29;11.13;;;4.00;;
60588;SDS011;46421;48.610;9.334;2023-08-24T15:05:19;8.53;;;4.17;;
60588;SDS011;46421;48.610;9.334;2023-08-24T15:07:45;8.87;;;4.23;;
60588;SDS011;46421;48.610;9.334;2023-08-24T15:12:35;7.17;;;3.83;;
60588;SDS011;46421;48.610;9.334;2023-08-24T15:15:01;10.02;;;4.15;;
60588;SDS011;46421;48.610;9.334;2023-08-24T15:17:29;7.15;;;4.28;;
60588;SDS011;46421;48.610;9.334;2023-08-24T15:19:54;8.85;;;3.72;;
60588;SDS011;46421;48.610;9.334;2023-08-24T15:22:20;7.60;;;4.22;;
60588;SDS011;46421;48.610;9.334;2023-08-24T15:24:45;11.33;;;4.60;;
60588;SDS011;46421;48.610;9.334;2023-08-24T15:27:10;9.60;;;4.33;;
60588;SDS011;46421;48.610;9.334;2023-08-24T15:29:36;11.02;;;4.68;;
60588;SDS011;46421;48.610;9.334;2023-08-24T15:32:01;9.13;;;4.80;;
60588;SDS011;46421;48.610;9.334;2023-08-24T15:34:26;10.57;;;5.23;;
60588;SDS011;46421;48.610;9.334;2023-08-24T15:36:51;7.70;;;4.00;;